createdAt,value
2018-06-29T00:00:45.946Z,2.60
2018-06-29T00:03:13.095Z,2.17
2018-06-29T00:05:40.320Z,2.33
2018-06-29T00:08:07.515Z,2.30
2018-06-29T00:10:34.721Z,2.23
2018-06-29T00:13:01.945Z,2.20
2018-06-29T00:15:29.071Z,2.50
2018-06-29T00:17:56.199Z,2.80
2018-06-29T00:20:23.358Z,3.07
2018-06-29T00:22:50.475Z,2.70
2018-06-29T00:25:17.636Z,2.70
2018-06-29T00:27:44.855Z,2.50
2018-06-29T00:30:12.022Z,2.60
2018-06-29T00:32:39.233Z,2.77
2018-06-29T00:35:06.623Z,2.67
2018-06-29T00:37:33.804Z,2.37
2018-06-29T00:40:00.971Z,2.67
2018-06-29T00:42:28.193Z,2.43
2018-06-29T00:44:55.351Z,3.00
2018-06-29T00:47:22.488Z,2.90
2018-06-29T00:49:49.781Z,2.57
2018-06-29T00:52:16.906Z,2.57
2018-06-29T00:54:44.110Z,2.30
2018-06-29T00:57:11.257Z,2.20
2018-06-29T00:59:38.553Z,2.20
2018-06-29T01:02:06.019Z,2.27
2018-06-29T01:04:33.174Z,2.27
2018-06-29T01:07:00.323Z,2.20
2018-06-29T01:09:27.462Z,1.80
2018-06-29T01:11:54.629Z,2.47
2018-06-29T01:14:21.865Z,2.23
2018-06-29T01:16:48.983Z,2.53
2018-06-29T01:19:16.213Z,2.10
2018-06-29T01:21:43.390Z,2.23
2018-06-29T01:24:10.820Z,2.20
2018-06-29T01:26:37.998Z,1.90
2018-06-29T01:29:05.181Z,1.90
2018-06-29T01:31:32.335Z,2.60
2018-06-29T01:33:59.483Z,2.17
2018-06-29T01:36:26.643Z,1.97
2018-06-29T01:38:53.809Z,2.00
2018-06-29T01:41:20.993Z,2.17
2018-06-29T01:43:48.391Z,2.10
2018-06-29T01:46:15.635Z,2.13
2018-06-29T01:48:42.784Z,2.37
2018-06-29T01:51:09.952Z,2.00
2018-06-29T01:53:37.128Z,2.50
2018-06-29T01:56:04.295Z,2.20
2018-06-29T01:58:31.489Z,2.17
2018-06-29T02:00:58.654Z,2.47
2018-06-29T02:03:25.772Z,2.40
2018-06-29T02:05:52.910Z,1.97
2018-06-29T02:08:20.076Z,2.23
2018-06-29T02:10:47.205Z,2.03
2018-06-29T02:13:14.315Z,2.03
2018-06-29T02:15:41.478Z,2.40
2018-06-29T02:18:08.762Z,2.10
2018-06-29T02:20:36.082Z,1.93
2018-06-29T02:23:03.198Z,2.13
2018-06-29T02:25:30.362Z,2.13
2018-06-29T02:27:57.488Z,2.17
2018-06-29T02:30:24.723Z,2.50
2018-06-29T02:32:51.770Z,2.30
2018-06-29T02:35:18.894Z,2.13
2018-06-29T02:37:46.010Z,2.47
2018-06-29T02:40:13.254Z,2.40
2018-06-29T02:42:40.435Z,2.43
2018-06-29T02:45:07.614Z,2.80
2018-06-29T02:47:34.817Z,2.00
2018-06-29T02:50:02.314Z,3.13
2018-06-29T02:52:29.447Z,2.30
2018-06-29T02:54:56.595Z,2.00
2018-06-29T02:57:23.754Z,2.00
2018-06-29T02:59:50.923Z,2.03
2018-06-29T03:02:18.322Z,1.97
2018-06-29T03:04:45.446Z,1.90
2018-06-29T03:07:12.570Z,2.43
2018-06-29T03:09:39.744Z,1.87
2018-06-29T03:12:06.898Z,1.70
2018-06-29T03:14:33.998Z,2.13
2018-06-29T03:17:01.106Z,2.33
2018-06-29T03:19:28.253Z,2.33
2018-06-29T03:21:55.402Z,1.93
2018-06-29T03:24:22.653Z,2.20
2018-06-29T03:26:49.755Z,2.50
2018-06-29T03:29:16.842Z,2.30
2018-06-29T03:31:43.962Z,2.23
2018-06-29T03:34:11.092Z,2.00
2018-06-29T03:36:38.200Z,2.50
2018-06-29T03:39:06.942Z,2.63
2018-06-29T03:41:34.423Z,2.20
2018-06-29T03:44:01.639Z,2.60
2018-06-29T03:46:28.753Z,2.40
2018-06-29T03:48:55.924Z,2.23
2018-06-29T03:51:23.048Z,2.50
2018-06-29T03:53:50.171Z,2.20
2018-06-29T03:56:17.300Z,2.30
2018-06-29T03:58:44.387Z,2.60
2018-06-29T04:01:11.502Z,2.30
2018-06-29T04:03:38.592Z,2.87
2018-06-29T04:06:05.771Z,2.20
2018-06-29T04:08:32.874Z,2.40
2018-06-29T04:10:59.998Z,2.67
2018-06-29T04:13:27.222Z,2.40
2018-06-29T04:15:54.386Z,2.30
2018-06-29T04:18:21.772Z,2.73
2018-06-29T04:20:48.882Z,2.10
2018-06-29T04:23:16.017Z,2.27
2018-06-29T04:25:43.118Z,2.47
2018-06-29T04:28:10.227Z,2.47
2018-06-29T04:30:37.362Z,2.47
2018-06-29T04:33:04.678Z,2.53
2018-06-29T04:35:31.797Z,2.93
2018-06-29T04:37:58.971Z,2.60
2018-06-29T04:40:26.175Z,2.50
2018-06-29T04:42:53.605Z,2.60
2018-06-29T04:45:20.712Z,3.10
2018-06-29T04:47:48.031Z,2.40
2018-06-29T04:50:15.394Z,2.63
2018-06-29T04:52:42.505Z,2.27
2018-06-29T04:55:09.611Z,2.70
2018-06-29T04:57:36.735Z,2.67
2018-06-29T05:00:04.313Z,2.20
2018-06-29T05:02:31.419Z,2.37
2018-06-29T05:04:58.538Z,2.53
2018-06-29T05:07:25.677Z,2.60
2018-06-29T05:09:53.081Z,2.47
2018-06-29T05:12:20.222Z,2.60
2018-06-29T05:14:47.325Z,2.37
2018-06-29T05:17:14.437Z,2.30
2018-06-29T05:19:41.546Z,2.57
2018-06-29T05:22:08.842Z,2.20
2018-06-29T05:24:35.946Z,2.20
2018-06-29T05:27:03.254Z,2.20
2018-06-29T05:29:30.386Z,2.17
2018-06-29T05:31:57.551Z,2.57
2018-06-29T05:34:24.741Z,2.53
2018-06-29T05:36:51.937Z,2.33
2018-06-29T05:39:19.125Z,2.53
2018-06-29T05:41:46.268Z,2.23
2018-06-29T05:44:13.314Z,2.10
2018-06-29T05:46:40.449Z,2.27
2018-06-29T05:49:08.414Z,2.70
2018-06-29T05:51:35.462Z,2.40
2018-06-29T05:54:02.629Z,1.95
2018-06-29T05:56:29.739Z,2.22
2018-06-29T05:58:56.965Z,2.20
2018-06-29T06:01:24.152Z,2.17
2018-06-29T06:03:51.307Z,2.20
2018-06-29T06:06:18.413Z,2.40
2018-06-29T06:08:46.325Z,2.22
2018-06-29T06:11:13.434Z,2.20
2018-06-29T06:13:40.521Z,2.20
2018-06-29T06:16:07.791Z,2.15
2018-06-29T06:18:34.902Z,2.45
2018-06-29T06:21:02.026Z,1.90
2018-06-29T06:23:29.182Z,2.80
2018-06-29T06:25:56.333Z,2.52
2018-06-29T06:28:23.586Z,1.98
2018-06-29T06:30:50.723Z,2.15
2018-06-29T06:33:17.810Z,2.25
2018-06-29T06:35:44.947Z,2.00
2018-06-29T06:38:12.143Z,2.10
2018-06-29T06:40:39.262Z,2.17
2018-06-29T06:43:06.382Z,1.90
2018-06-29T06:45:33.502Z,2.30
2018-06-29T06:48:00.593Z,2.20
2018-06-29T06:50:27.778Z,1.90
2018-06-29T06:52:55.091Z,2.17
2018-06-29T06:55:22.411Z,1.80
2018-06-29T06:57:49.570Z,1.87
2018-06-29T07:00:16.678Z,2.05
2018-06-29T07:02:43.797Z,1.82
2018-06-29T07:05:10.922Z,2.05
2018-06-29T07:07:38.019Z,1.67
2018-06-29T07:10:05.317Z,2.10
2018-06-29T07:12:32.520Z,2.05
2018-06-29T07:14:59.691Z,1.87
2018-06-29T07:17:26.953Z,2.00
2018-06-29T07:19:58.401Z,1.72
2018-06-29T07:22:25.568Z,3.33
2018-06-29T07:24:52.775Z,1.92
2018-06-29T07:27:19.945Z,1.77
2018-06-29T07:29:47.062Z,1.82
2018-06-29T07:32:14.226Z,1.75
2018-06-29T07:34:41.345Z,2.00
2018-06-29T07:37:08.480Z,1.82
2018-06-29T07:39:35.597Z,1.67
2018-06-29T07:42:02.889Z,1.90
2018-06-29T07:44:29.985Z,1.98
2018-06-29T07:46:57.169Z,1.95
2018-06-29T07:49:24.334Z,1.57
2018-06-29T07:51:51.498Z,1.67
2018-06-29T07:54:18.618Z,1.62
2018-06-29T07:56:45.733Z,1.67
2018-06-29T07:59:13.217Z,1.80
2018-06-29T08:01:40.323Z,1.90
2018-06-29T08:04:07.426Z,1.60
2018-06-29T08:06:34.569Z,1.70
2018-06-29T08:09:01.678Z,1.67
2018-06-29T08:11:28.787Z,1.35
2018-06-29T08:13:56.038Z,1.50
2018-06-29T08:16:23.209Z,1.35
2018-06-29T08:18:50.317Z,1.60
2018-06-29T08:21:17.423Z,1.85
2018-06-29T08:23:44.526Z,1.40
2018-06-29T08:26:21.484Z,1.60
2018-06-29T08:28:48.586Z,1.60
2018-06-29T08:31:15.691Z,1.70
2018-06-29T08:33:42.799Z,1.70
2018-06-29T08:36:09.911Z,1.40
2018-06-29T08:38:37.485Z,1.70
2018-06-29T08:41:04.612Z,1.47
2018-06-29T08:43:31.772Z,1.50
2018-06-29T08:45:58.901Z,1.62
2018-06-29T08:48:26.180Z,1.32
2018-06-29T08:50:53.373Z,1.52
2018-06-29T08:53:20.494Z,1.80
2018-06-29T08:55:47.618Z,1.72
2018-06-29T08:58:14.723Z,1.40
2018-06-29T09:00:41.843Z,1.70
2018-06-29T09:03:08.941Z,1.70
2018-06-29T09:05:36.042Z,2.12
2018-06-29T09:08:03.324Z,1.50
2018-06-29T09:10:30.429Z,1.77
2018-06-29T09:12:57.589Z,1.70
2018-06-29T09:15:24.772Z,1.72
2018-06-29T09:17:52.000Z,1.32
2018-06-29T09:20:19.097Z,1.65
2018-06-29T09:22:46.210Z,2.10
2018-06-29T09:25:13.560Z,1.65
2018-06-29T09:27:40.746Z,1.82
2018-06-29T09:30:08.093Z,1.70
2018-06-29T09:32:35.217Z,1.60
2018-06-29T09:35:02.467Z,1.92
2018-06-29T09:37:29.593Z,2.02
2018-06-29T09:39:56.798Z,2.15
2018-06-29T09:42:23.950Z,1.92
2018-06-29T09:44:51.073Z,1.60
2018-06-29T09:47:18.210Z,1.60
2018-06-29T09:49:45.329Z,1.75
2018-06-29T09:52:12.449Z,2.20
2018-06-29T09:54:39.554Z,1.80
2018-06-29T09:57:06.701Z,2.05
2018-06-29T09:59:33.850Z,1.80
2018-06-29T10:02:00.957Z,1.82
2018-06-29T10:04:28.099Z,2.00
2018-06-29T10:06:55.307Z,1.77
2018-06-29T10:09:22.499Z,1.80
2018-06-29T10:11:49.606Z,2.00
2018-06-29T10:14:16.731Z,1.90
2018-06-29T10:16:43.849Z,1.80
2018-06-29T10:19:10.939Z,2.25
2018-06-29T10:21:38.050Z,2.20
2018-06-29T10:24:05.180Z,1.92
2018-06-29T10:26:32.314Z,1.98
2018-06-29T10:29:00.037Z,3.08
2018-06-29T10:31:27.237Z,2.10
2018-06-29T10:33:54.375Z,2.33
2018-06-29T10:36:21.554Z,2.00
2018-06-29T10:38:48.736Z,2.20
2018-06-29T10:41:15.817Z,2.47
2018-06-29T10:43:42.913Z,2.20
2018-06-29T10:46:10.037Z,2.30
2018-06-29T10:48:37.143Z,2.20
2018-06-29T10:51:04.262Z,2.22
2018-06-29T10:53:31.387Z,2.30
2018-06-29T10:55:58.565Z,2.62
2018-06-29T10:58:25.762Z,2.25
2018-06-29T11:00:52.961Z,2.60
2018-06-29T11:03:20.077Z,2.40
2018-06-29T11:05:47.267Z,2.17
2018-06-29T11:08:14.399Z,2.10
2018-06-29T11:10:41.522Z,2.30
2018-06-29T11:13:08.664Z,2.27
2018-06-29T11:15:35.716Z,2.20
2018-06-29T11:18:02.848Z,2.55
2018-06-29T11:20:29.977Z,2.35
2018-06-29T11:22:57.138Z,2.20
2018-06-29T11:25:24.314Z,2.33
2018-06-29T11:27:51.452Z,2.00
2018-06-29T11:30:18.606Z,1.92
2018-06-29T11:32:45.731Z,2.00
2018-06-29T11:35:13.023Z,2.15
2018-06-29T11:37:40.142Z,2.58
2018-06-29T11:40:07.261Z,2.58
2018-06-29T11:42:34.372Z,2.40
2018-06-29T11:45:01.498Z,2.05
2018-06-29T11:47:28.694Z,2.22
2018-06-29T11:49:55.989Z,2.27
2018-06-29T11:52:23.277Z,2.33
2018-06-29T11:54:50.374Z,2.22
2018-06-29T11:57:17.466Z,2.20
2018-06-29T11:59:44.802Z,2.50
2018-06-29T12:02:11.942Z,2.25
2018-06-29T12:04:39.046Z,2.47
2018-06-29T12:07:06.164Z,2.52
2018-06-29T12:09:33.254Z,2.20
2018-06-29T12:12:00.516Z,2.10
2018-06-29T12:14:27.779Z,2.12
2018-06-29T12:16:55.075Z,2.17
2018-06-29T12:19:22.222Z,2.10
2018-06-29T12:21:49.330Z,2.22
2018-06-29T12:24:16.417Z,2.60
2018-06-29T12:26:43.522Z,2.15
2018-06-29T12:29:10.707Z,2.42
2018-06-29T12:31:37.837Z,2.12
2018-06-29T12:34:05.053Z,1.72
2018-06-29T12:36:32.264Z,1.98
2018-06-29T12:38:59.371Z,2.40
2018-06-29T12:41:26.598Z,2.75
2018-06-29T12:43:53.800Z,2.10
2018-06-29T12:46:20.942Z,2.47
2018-06-29T12:48:48.083Z,1.75
2018-06-29T12:51:15.185Z,2.15
2018-06-29T12:53:42.302Z,2.22
2018-06-29T12:56:09.449Z,2.02
2018-06-29T12:58:36.597Z,2.20
2018-06-29T13:01:03.693Z,2.58
2018-06-29T13:03:30.897Z,2.08
2018-06-29T13:05:58.149Z,2.15
2018-06-29T13:08:25.339Z,1.77
2018-06-29T13:10:52.581Z,1.90
2018-06-29T13:13:19.702Z,1.80
2018-06-29T13:15:46.825Z,2.10
2018-06-29T13:18:13.922Z,2.17
2018-06-29T13:20:41.261Z,1.70
2018-06-29T13:23:08.374Z,1.90
2018-06-29T13:25:35.502Z,1.92
2018-06-29T13:28:02.626Z,2.00
2018-06-29T13:30:29.730Z,2.02
2018-06-29T13:32:56.903Z,1.98
2018-06-29T13:35:24.066Z,2.12
2018-06-29T13:37:51.376Z,1.90
2018-06-29T13:40:18.524Z,1.70
2018-06-29T13:42:45.642Z,1.92
2018-06-29T13:45:12.769Z,1.62
2018-06-29T13:47:39.866Z,2.08
2018-06-29T13:50:06.978Z,2.02
2018-06-29T13:52:34.103Z,1.87
2018-06-29T13:55:01.449Z,1.70
2018-06-29T13:57:28.650Z,1.72
2018-06-29T13:59:55.813Z,1.80
2018-06-29T14:02:23.107Z,2.00
2018-06-29T14:04:50.202Z,1.80
2018-06-29T14:07:17.369Z,2.00
2018-06-29T14:09:44.482Z,1.87
2018-06-29T14:12:11.623Z,2.00
2018-06-29T14:14:38.765Z,1.65
2018-06-29T14:17:05.979Z,1.98
2018-06-29T14:19:33.089Z,2.02
2018-06-29T14:22:00.218Z,1.80
2018-06-29T14:24:27.405Z,1.87
2018-06-29T14:26:54.620Z,2.00
2018-06-29T14:29:21.829Z,1.57
2018-06-29T14:31:48.918Z,1.62
2018-06-29T14:34:15.996Z,1.75
2018-06-29T14:36:43.089Z,2.00
2018-06-29T14:39:10.799Z,1.80
2018-06-29T14:41:37.913Z,2.10
2018-06-29T14:44:05.286Z,1.80
2018-06-29T14:46:32.423Z,2.00
2018-06-29T14:48:59.554Z,1.70
2018-06-29T14:51:26.765Z,2.00
2018-06-29T14:53:53.970Z,1.77
2018-06-29T14:56:21.149Z,1.70
2018-06-29T14:58:48.270Z,1.90
2018-06-29T15:01:15.395Z,1.77
2018-06-29T15:03:42.498Z,1.85
2018-06-29T15:06:09.630Z,2.05
2018-06-29T15:08:36.726Z,1.75
2018-06-29T15:11:03.852Z,1.77
2018-06-29T15:13:30.966Z,1.85
2018-06-29T15:15:58.103Z,2.15
2018-06-29T15:18:25.274Z,2.05
2018-06-29T15:20:52.469Z,2.00
2018-06-29T15:23:19.605Z,2.10
2018-06-29T15:25:46.707Z,1.90
2018-06-29T15:28:13.833Z,1.75
2018-06-29T15:30:41.495Z,1.82
2018-06-29T15:33:08.598Z,1.80
2018-06-29T15:35:35.978Z,1.82
2018-06-29T15:38:03.090Z,1.80
2018-06-29T15:40:30.351Z,1.50
2018-06-29T15:42:57.507Z,1.80
2018-06-29T15:45:24.785Z,1.95
2018-06-29T15:47:51.958Z,2.02
2018-06-29T15:50:19.095Z,1.92
2018-06-29T15:52:46.196Z,2.10
2018-06-29T15:55:13.336Z,2.00
2018-06-29T15:57:40.477Z,2.20
2018-06-29T16:00:08.670Z,2.00
2018-06-29T16:02:35.791Z,1.60
2018-06-29T16:05:02.945Z,1.90
2018-06-29T16:07:30.170Z,1.85
2018-06-29T16:09:57.344Z,1.90
2018-06-29T16:12:24.696Z,1.90
2018-06-29T16:14:51.879Z,1.70
2018-06-29T16:17:19.054Z,1.80
2018-06-29T16:19:46.182Z,1.77
2018-06-29T16:22:13.302Z,1.60
2018-06-29T16:24:40.421Z,1.70
2018-06-29T16:27:07.551Z,1.80
2018-06-29T16:29:34.679Z,1.72
2018-06-29T16:32:01.788Z,1.67
2018-06-29T16:34:28.950Z,1.72
2018-06-29T16:36:56.137Z,2.10
2018-06-29T16:39:23.708Z,1.87
2018-06-29T16:41:50.874Z,1.90
2018-06-29T16:44:17.999Z,2.20
2018-06-29T16:46:45.087Z,1.87
2018-06-29T16:49:12.226Z,2.25
2018-06-29T16:51:39.345Z,1.60
2018-06-29T16:54:06.464Z,1.70
2018-06-29T16:56:33.582Z,1.70
2018-06-29T16:59:00.682Z,1.92
2018-06-29T17:01:27.874Z,1.60
2018-06-29T17:03:55.166Z,1.77
2018-06-29T17:06:22.359Z,1.77
2018-06-29T17:08:49.462Z,1.72
2018-06-29T17:11:16.583Z,1.87
2018-06-29T17:13:43.679Z,1.52
2018-06-29T17:16:10.881Z,2.00
2018-06-29T17:18:38.031Z,1.60
2018-06-29T17:21:05.097Z,2.10
2018-06-29T17:23:32.232Z,1.77
2018-06-29T17:25:59.352Z,1.92
2018-06-29T17:28:26.631Z,1.92
2018-06-29T17:30:53.781Z,1.82
2018-06-29T17:33:32.045Z,1.72
2018-06-29T17:35:48.038Z,1.70
2018-06-29T17:38:15.186Z,1.60
2018-06-29T17:40:42.293Z,1.80
2018-06-29T17:43:09.410Z,1.60
2018-06-29T17:45:36.518Z,1.67
2018-06-29T17:48:03.637Z,1.70
2018-06-29T17:50:30.749Z,1.72
2018-06-29T17:52:57.955Z,1.65
2018-06-29T17:55:25.192Z,1.52
2018-06-29T17:57:52.439Z,1.80
2018-06-29T18:00:19.821Z,1.45
2018-06-29T18:02:47.055Z,1.50
2018-06-29T18:05:14.164Z,1.72
2018-06-29T18:07:41.335Z,1.60
2018-06-29T18:10:08.534Z,1.50
2018-06-29T18:12:35.665Z,1.75
2018-06-29T18:15:02.759Z,1.47
2018-06-29T18:17:29.863Z,1.80
2018-06-29T18:19:57.021Z,1.40
2018-06-29T18:22:24.265Z,1.67
2018-06-29T18:24:51.738Z,1.90
2018-06-29T18:27:18.860Z,1.55
2018-06-29T18:29:46.000Z,1.45
2018-06-29T18:32:13.120Z,2.00
2018-06-29T18:34:40.262Z,2.00
2018-06-29T18:37:07.407Z,2.00
2018-06-29T18:39:34.534Z,1.70
2018-06-29T18:42:01.748Z,2.27
2018-06-29T18:44:29.006Z,2.10
2018-06-29T18:46:56.210Z,2.22
2018-06-29T18:49:23.362Z,2.92
2018-06-29T18:51:50.462Z,3.85
2018-06-29T18:54:17.586Z,2.25
2018-06-29T18:56:44.715Z,1.75
2018-06-29T18:59:11.816Z,3.60
2018-06-29T19:01:38.943Z,2.80
2018-06-29T19:04:06.070Z,2.02
2018-06-29T19:06:33.408Z,1.92
2018-06-29T19:09:00.530Z,2.30
2018-06-29T19:11:27.773Z,1.80
2018-06-29T19:13:54.944Z,2.10
2018-06-29T19:16:22.138Z,2.08
2018-06-29T19:18:49.291Z,2.17
2018-06-29T19:21:16.489Z,1.80
2018-06-29T19:23:43.613Z,1.80
2018-06-29T19:26:10.714Z,2.08
2018-06-29T19:28:37.817Z,2.45
2018-06-29T19:31:05.005Z,2.10
2018-06-29T19:33:32.142Z,2.10
2018-06-29T19:35:59.399Z,2.10
2018-06-29T19:38:26.594Z,2.00
2018-06-29T19:40:53.723Z,2.12
2018-06-29T19:43:20.850Z,1.95
2018-06-29T19:45:47.955Z,2.22
2018-06-29T19:48:15.086Z,1.87
2018-06-29T19:50:42.195Z,2.15
2018-06-29T19:53:09.334Z,2.60
2018-06-29T19:55:36.510Z,2.37
2018-06-29T19:58:03.614Z,2.40
2018-06-29T20:00:30.731Z,2.37
2018-06-29T20:02:57.913Z,2.22
2018-06-29T20:05:25.060Z,2.52
2018-06-29T20:07:52.408Z,2.43
2018-06-29T20:10:19.547Z,2.23
2018-06-29T20:12:46.690Z,2.70
2018-06-29T20:15:13.794Z,2.50
2018-06-29T20:17:40.919Z,2.58
2018-06-29T20:20:08.820Z,2.50
2018-06-29T20:22:36.301Z,2.33
2018-06-29T20:25:03.719Z,2.87
2018-06-29T20:27:30.816Z,2.47
2018-06-29T20:29:58.000Z,2.60
2018-06-29T20:32:25.168Z,2.03
2018-06-29T20:34:52.346Z,1.97
2018-06-29T20:37:19.458Z,2.07
2018-06-29T20:39:46.714Z,2.23
2018-06-29T20:42:13.837Z,2.00
2018-06-29T20:44:40.953Z,2.87
2018-06-29T20:47:08.078Z,2.23
2018-06-29T20:49:35.244Z,2.50
2018-06-29T20:52:02.305Z,1.80
2018-06-29T20:54:29.430Z,2.23
2018-06-29T20:56:56.650Z,2.20
2018-06-29T20:59:23.818Z,1.77
2018-06-29T21:01:50.950Z,2.20
2018-06-29T21:04:18.074Z,2.10
2018-06-29T21:06:45.250Z,1.70
2018-06-29T21:09:12.389Z,1.80
2018-06-29T21:11:40.047Z,1.70
2018-06-29T21:14:07.282Z,1.60
2018-06-29T21:16:34.410Z,1.70
2018-06-29T21:19:01.578Z,1.60
2018-06-29T21:21:28.777Z,1.70
2018-06-29T21:23:55.917Z,1.40
2018-06-29T21:26:23.163Z,1.70
2018-06-29T21:28:50.286Z,1.83
2018-06-29T21:31:17.430Z,1.87
2018-06-29T21:33:44.560Z,1.70
2018-06-29T21:36:11.639Z,1.90
2018-06-29T21:38:39.101Z,1.90
2018-06-29T21:41:06.223Z,1.77
2018-06-29T21:43:33.477Z,1.70
2018-06-29T21:46:00.749Z,1.60
2018-06-29T21:48:27.898Z,1.83
2018-06-29T21:50:55.039Z,1.87
2018-06-29T21:53:22.210Z,1.50
2018-06-29T21:55:49.301Z,1.50
2018-06-29T21:58:16.425Z,1.80
2018-06-29T22:00:43.883Z,1.83
2018-06-29T22:03:12.105Z,1.27
2018-06-29T22:05:40.395Z,1.27
2018-06-29T22:08:08.482Z,1.60
2018-06-29T22:10:35.854Z,1.73
2018-06-29T22:13:02.983Z,1.60
2018-06-29T22:15:30.232Z,1.70
2018-06-29T22:17:57.400Z,1.43
2018-06-29T22:20:24.761Z,1.50
2018-06-29T22:22:52.169Z,1.40
2018-06-29T22:25:19.846Z,1.33
2018-06-29T22:27:47.229Z,1.50
2018-06-29T22:30:14.371Z,1.60
2018-06-29T22:32:41.473Z,1.77
2018-06-29T22:35:08.614Z,1.40
2018-06-29T22:37:35.829Z,1.57
2018-06-29T22:40:03.339Z,1.30
2018-06-29T22:42:30.537Z,1.47
2018-06-29T22:44:57.764Z,1.50
2018-06-29T22:47:24.937Z,1.20
2018-06-29T22:49:52.071Z,1.40
2018-06-29T22:52:19.209Z,1.10
2018-06-29T22:54:46.305Z,1.30
2018-06-29T22:57:13.421Z,1.27
2018-06-29T22:59:40.654Z,1.57
2018-06-29T23:02:07.774Z,1.30
2018-06-29T23:04:34.894Z,1.53
2018-06-29T23:07:02.080Z,1.53
2018-06-29T23:09:29.179Z,1.10
2018-06-29T23:11:56.352Z,1.30
2018-06-29T23:14:23.834Z,1.60
2018-06-29T23:16:50.967Z,1.43
2018-06-29T23:19:18.082Z,1.63
2018-06-29T23:21:45.184Z,1.50
2018-06-29T23:24:12.295Z,1.60
2018-06-29T23:26:39.448Z,1.43
2018-06-29T23:29:06.561Z,1.20
2018-06-29T23:31:33.678Z,1.27
2018-06-29T23:34:00.950Z,1.70
2018-06-29T23:36:28.103Z,1.43
2018-06-29T23:38:55.264Z,1.60
2018-06-29T23:41:22.415Z,1.53
2018-06-29T23:43:49.525Z,1.17
2018-06-29T23:46:16.614Z,1.90
2018-06-29T23:48:44.518Z,1.50
2018-06-29T23:51:11.634Z,1.40
2018-06-29T23:53:38.738Z,1.27
2018-06-29T23:56:05.870Z,1.37
2018-06-29T23:58:32.977Z,1.60
